Weather at Cape Girardeau Regional Airport

Public forecast

Using degrees Fahrenheit for public forecast. Weather courtesy of forecast.io.

Current aviation weather report (METAR) for Cape Girardeau Regional Airport

Retrieved 2020/09/29 22:53 UTC (45 minutes ago):

KCGI 292253Z AUTO 28006KT 10SM OVC075 16/09 A2994 RMK AO2 SLP139 T01610089

Aviation forecast (TAF) for Cape Girardeau Regional Airport

Retrieved 2020/09/29 18:22 UTC (5 hours ago):

TAF KCGI 291720Z 2918/3018 30011KT P6SM BKN040 FM292300 28005KT P6SM SCT180